Airfield :
LOGIN :

Register | Disclaimer

   EN    FR    IT 

 










Legend :    VFR   Marginal VFR   IFR   Intensive IFR   Very Intensive IFR
Visi :
Ceiling :
>= 8 km
>= 3000ft
5 to 8 km
1000 to 3000 ft
1500m to 5 km
500 to 1000 ft
800 to 1500m
200 to 500 ft
< 800m
< 200 ft
Symbols :   Thunderstorms  Fog  Heavy snow  Heavy precipitations  Wind > 20 kt
SIGMETs :     Misc.  Thunderstorms  Icing  Turbulence  Mountain Waves  Volcanic Ashes






- Airport Elevation : 194 ft


EBCV - Chièvres

CURRENT METAR :
  • 011225Z AUTO 03007KT 6000 BR OVC009/// 06/05 Q1027 GRN

EXPIRED METARs :
  • 011209Z AUTO 04007KT 5000 BR SCT008/// OVC023/// 06/05 Q1027 GRN
  • 011155Z AUTO 04007KT 5000 BR FEW007/// OVC021/// 06/05 Q1027 WHT
  • 011125Z AUTO 04007KT 5000 BR SCT007/// OVC021/// 06/05 Q1027 GRN
  • 011055Z AUTO 03007KT 4600 BR BKN007/// BKN022/// 05/05 Q1027 GRN
  • 011025Z AUTO 02008KT 4200 BR BKN007/// OVC022/// 05/04 Q1027 GRN
  • 011014Z AUTO 02007KT 4000 BR SCT007/// OVC021/// 05/04 Q1027 GRN
  • 010955Z AUTO 02007KT 3500 BR SCT007/// OVC021/// 05/04 Q1027 YLO
  • 010925Z AUTO 36007KT 3200 BR BKN006/// OVC017/// 05/04 Q1028 YLO

TAF TAF EBCV
Valid from the 01 at 13:00 until the 01 at 22:00 UTC


011141Z 0113/0122 06007KT 6000 SCT010 BKN012
PROB30
TEMPO 0113/0118 9999 FEW010 BKN020
TEMPO 0120/0122 03004KT 3000 BR SCT005 BKN007 BY EBWM



MET'MAP, your aeronautical weather chart ! - Copyright ORBIFLY December 2007 - Disclaimer

ORBIFLY MET'MAP TEAM :

Programming & Development : Alexandra Zaïnal
Original concept : Baudouin d'Aumeries
Technical & hardware support : Manuel Goepfert
Assistance : Marc-Olivier Méhu




SOURCES & CREDITS :

   NOAA